Time;durP1;ratioP1;P1;durP2;ratioP2;P2;SDS_P1;SDS_P2;PMS_P1;PMS_P2;Temp;Humidity;BMP_temperature;BMP_pressure;BME280_temperature;BME280_humidity;BME280_pressure;Samples;Min_cycle;Max_cycle;Signal;HPM_P1;HPM_P2
2021/09/12 00:01:14;;;;;;;55.17;29.08;;;17.00;99.90;;;;;;5065411;28;20499;-87
2021/09/12 00:03:39;;;;;;;55.13;28.92;;;17.00;99.90;;;;;;5072452;28;20032;-87
2021/09/12 00:06:05;;;;;;;59.85;30.42;;;17.00;99.90;;;;;;5071065;28;20123;-87
2021/09/12 00:08:31;;;;;;;58.03;30.98;;;17.00;99.90;;;;;;5071719;28;20043;-87
2021/09/12 00:10:56;;;;;;;51.25;28.60;;;17.00;99.90;;;;;;5072078;28;20518;-87
2021/09/12 00:13:22;;;;;;;52.13;28.45;;;17.00;99.90;;;;;;5070637;28;20052;-87
2021/09/12 00:15:49;;;;;;;59.50;29.33;;;17.10;99.90;;;;;;5105861;28;20059;-87
2021/09/12 00:18:15;;;;;;;64.22;29.75;;;17.00;99.90;;;;;;5071024;28;20432;-87
2021/09/12 00:20:41;;;;;;;57.58;30.38;;;17.00;99.90;;;;;;5071937;28;20117;-87
2021/09/12 00:23:07;;;;;;;58.83;29.80;;;17.10;99.90;;;;;;5070520;28;20044;-87
2021/09/12 00:25:32;;;;;;;58.85;30.48;;;17.10;99.90;;;;;;5088606;28;20514;-87
2021/09/12 00:27:58;;;;;;;59.25;31.23;;;17.10;99.90;;;;;;5071707;28;20133;-87
2021/09/12 00:30:24;;;;;;;82.45;31.45;;;17.10;99.90;;;;;;5079028;28;20036;-87
2021/09/12 00:32:49;;;;;;;62.50;29.60;;;17.10;99.90;;;;;;5071794;28;20040;-86
2021/09/12 00:35:15;;;;;;;67.78;30.63;;;17.10;99.90;;;;;;5070364;28;20507;-87
2021/09/12 00:37:43;;;;;;;66.40;30.35;;;17.10;99.90;;;;;;5055158;28;20123;-86
2021/09/12 00:40:09;;;;;;;67.57;29.13;;;17.10;99.90;;;;;;5070851;28;20499;-87
2021/09/12 00:42:35;;;;;;;56.72;29.35;;;17.00;99.90;;;;;;5081810;28;20130;-87
2021/09/12 00:45:01;;;;;;;55.03;28.15;;;17.00;99.90;;;;;;5088441;28;20464;-87
2021/09/12 00:47:27;;;;;;;60.95;27.13;;;17.00;99.90;;;;;;5087780;28;20129;-87
2021/09/12 00:49:53;;;;;;;58.08;26.63;;;17.00;99.90;;;;;;5070964;28;20492;-87
2021/09/12 00:52:20;;;;;;;62.60;27.98;;;17.00;99.90;;;;;;5087265;28;20349;-86
2021/09/12 00:54:48;;;;;;;50.30;26.23;;;17.00;99.90;;;;;;5089158;28;20097;-87
2021/09/12 00:57:14;;;;;;;66.78;25.13;;;16.90;99.90;;;;;;5070449;28;20083;-87
2021/09/12 00:59:41;;;;;;;44.42;24.08;;;16.90;99.90;;;;;;5067833;28;20076;-87
2021/09/12 01:02:08;;;;;;;43.88;23.48;;;16.90;99.90;;;;;;5099492;28;20106;-88
2021/09/12 01:04:36;;;;;;;47.47;22.90;;;16.80;99.90;;;;;;5088369;28;20102;-88
2021/09/12 01:07:03;;;;;;;61.20;23.35;;;16.80;99.90;;;;;;5071147;28;20415;-87
2021/09/12 01:09:30;;;;;;;40.25;20.88;;;16.70;99.90;;;;;;5070237;28;20063;-87
2021/09/12 01:11:59;;;;;;;42.22;19.25;;;16.70;99.90;;;;;;5071372;28;20067;-87
2021/09/12 01:14:27;;;;;;;32.83;18.45;;;16.70;99.90;;;;;;5087669;28;20660;-87
2021/09/12 01:16:53;;;;;;;32.08;17.67;;;16.60;99.90;;;;;;5061725;28;20044;-87
2021/09/12 01:19:20;;;;;;;36.55;18.73;;;16.60;99.90;;;;;;5083448;28;20105;-88
2021/09/12 01:21:46;;;;;;;35.17;18.35;;;16.50;99.90;;;;;;5079606;28;20071;-88
2021/09/12 01:24:12;;;;;;;46.10;20.65;;;16.50;99.90;;;;;;5086968;28;20508;-87
2021/09/12 01:26:38;;;;;;;42.30;20.05;;;16.50;99.90;;;;;;5088399;28;20091;-88
2021/09/12 01:29:04;;;;;;;42.78;20.95;;;16.40;99.90;;;;;;5053921;28;20075;-88
2021/09/12 01:31:32;;;;;;;42.25;22.13;;;16.40;99.90;;;;;;5086867;28;20047;-88
2021/09/12 01:33:59;;;;;;;60.50;24.23;;;16.40;99.90;;;;;;5065283;28;20056;-88
2021/09/12 01:36:25;;;;;;;58.83;24.15;;;16.40;99.90;;;;;;5053112;28;20058;-87
2021/09/12 01:38:52;;;;;;;50.70;24.20;;;16.40;99.90;;;;;;5070474;28;20044;-88
2021/09/12 01:41:18;;;;;;;53.00;26.63;;;16.40;99.90;;;;;;5069917;28;20377;-87
2021/09/12 01:43:57;;;;;;;61.42;27.25;;;16.40;99.90;;;;;;5087389;28;20040;-88
2021/09/12 01:46:24;;;;;;;57.05;27.17;;;16.40;99.90;;;;;;5069560;28;20131;-88
2021/09/12 01:48:51;;;;;;;65.35;29.13;;;16.40;99.90;;;;;;5057080;28;20052;-87
2021/09/12 01:51:18;;;;;;;71.97;28.38;;;16.50;99.90;;;;;;5090637;28;20135;-87
2021/09/12 01:53:44;;;;;;;71.05;29.75;;;16.50;99.90;;;;;;5090903;28;20058;-87
2021/09/12 01:56:11;;;;;;;75.10;28.77;;;16.50;99.90;;;;;;5073823;28;20400;-88
2021/09/12 01:58:37;;;;;;;76.78;29.23;;;16.50;99.90;;;;;;5074013;28;20058;-88
2021/09/12 02:01:05;;;;;;;65.70;30.33;;;16.50;99.90;;;;;;5092025;28;20052;-88
2021/09/12 02:03:30;;;;;;;83.28;31.20;;;16.50;99.90;;;;;;5091051;28;20051;-87
2021/09/12 02:05:56;;;;;;;76.50;33.35;;;16.50;99.90;;;;;;5091211;28;20058;-87
2021/09/12 02:08:22;;;;;;;82.32;33.45;;;16.50;99.90;;;;;;5091267;28;20449;-88
2021/09/12 02:10:48;;;;;;;91.10;32.75;;;16.50;99.90;;;;;;5070837;28;20044;-86
2021/09/12 02:13:14;;;;;;;89.43;34.17;;;16.60;99.90;;;;;;5073019;28;20054;-87
2021/09/12 02:15:40;;;;;;;73.35;30.98;;;16.60;99.90;;;;;;5091966;28;20047;-87
2021/09/12 02:18:06;;;;;;;73.65;29.30;;;16.60;99.90;;;;;;5073748;28;20073;-87
2021/09/12 02:20:31;;;;;;;72.50;28.65;;;16.60;99.90;;;;;;5106816;28;20044;-88
2021/09/12 02:22:57;;;;;;;76.22;29.10;;;16.60;99.90;;;;;;5091433;28;20407;-86
2021/09/12 02:25:23;;;;;;;69.07;29.40;;;16.60;99.90;;;;;;5072935;28;20071;-87
2021/09/12 02:27:49;;;;;;;55.67;26.27;;;16.60;99.90;;;;;;5091238;28;20119;-87
2021/09/12 02:30:15;;;;;;;61.83;26.88;;;16.60;99.90;;;;;;5072785;28;20043;-87
2021/09/12 02:32:41;;;;;;;77.20;30.88;;;16.70;99.90;;;;;;5056727;28;20131;-87
2021/09/12 02:35:08;;;;;;;69.32;28.42;;;16.70;99.90;;;;;;5073179;28;20131;-87
2021/09/12 02:37:34;;;;;;;76.25;30.35;;;16.60;99.90;;;;;;5056047;28;20055;-86
2021/09/12 02:40:00;;;;;;;73.47;29.63;;;16.60;99.90;;;;;;5056836;28;20169;-87
2021/09/12 02:42:26;;;;;;;65.57;28.55;;;16.70;99.90;;;;;;5090634;28;20106;-87
2021/09/12 02:44:51;;;;;;;81.57;29.27;;;16.70;99.90;;;;;;5073259;28;20123;-87
2021/09/12 02:47:17;;;;;;;71.00;28.25;;;16.60;99.90;;;;;;5090663;28;20082;-86
2021/09/12 02:49:43;;;;;;;67.00;29.33;;;16.60;99.90;;;;;;5072591;28;20062;-87
2021/09/12 02:52:08;;;;;;;70.18;28.65;;;16.60;99.90;;;;;;5090078;28;20044;-88
2021/09/12 02:54:34;;;;;;;65.50;27.92;;;16.60;99.90;;;;;;5052296;28;20040;-87
2021/09/12 02:57:00;;;;;;;69.95;27.77;;;16.60;99.90;;;;;;5070493;28;20492;-86
2021/09/12 02:59:25;;;;;;;58.03;26.70;;;16.60;99.90;;;;;;5071757;28;20052;-88
2021/09/12 03:01:51;;;;;;;60.55;26.33;;;16.60;99.90;;;;;;5056145;28;20044;-87
2021/09/12 03:04:17;;;;;;;66.95;25.98;;;16.60;99.90;;;;;;5105538;28;20096;-86
2021/09/12 03:06:42;;;;;;;68.47;26.48;;;16.60;99.90;;;;;;5089508;28;20475;-87
2021/09/12 03:09:08;;;;;;;81.90;25.40;;;16.60;99.90;;;;;;5087168;28;20097;-87
2021/09/12 03:11:34;;;;;;;66.97;24.95;;;16.60;99.90;;;;;;5072319;28;20075;-87
2021/09/12 03:13:59;;;;;;;62.60;26.35;;;16.50;99.90;;;;;;5089682;28;20504;-87
2021/09/12 03:16:25;;;;;;;64.95;24.40;;;16.50;99.90;;;;;;5071930;28;20480;-87
2021/09/12 03:18:51;;;;;;;49.72;23.60;;;16.50;99.90;;;;;;5089325;28;20080;-87
2021/09/12 03:21:18;;;;;;;67.45;23.98;;;16.40;99.90;;;;;;5071947;28;20043;-87
2021/09/12 03:23:43;;;;;;;59.40;23.85;;;16.40;99.90;;;;;;5089377;28;20119;-88
2021/09/12 03:26:09;;;;;;;58.25;22.58;;;16.40;99.90;;;;;;5106202;28;20248;-88
2021/09/12 03:28:35;;;;;;;52.30;22.25;;;16.40;99.90;;;;;;5071523;28;20040;-87
2021/09/12 03:31:01;;;;;;;56.08;22.35;;;16.30;99.90;;;;;;5089107;28;20044;-87
2021/09/12 03:33:27;;;;;;;61.88;21.05;;;16.30;99.90;;;;;;5105172;28;20059;-88
2021/09/12 03:35:52;;;;;;;63.85;21.17;;;16.30;99.90;;;;;;5072225;28;20052;-88
2021/09/12 03:38:18;;;;;;;55.75;20.02;;;16.30;99.90;;;;;;5071625;28;20373;-88
2021/09/12 03:40:44;;;;;;;62.22;20.95;;;16.20;99.90;;;;;;5072224;28;20043;-87
2021/09/12 03:43:09;;;;;;;49.05;19.90;;;16.20;99.90;;;;;;5072001;28;20606;-87
2021/09/12 03:45:35;;;;;;;51.08;18.40;;;16.20;99.90;;;;;;5071482;28;20105;-86
2021/09/12 03:48:01;;;;;;;49.08;18.77;;;16.20;99.90;;;;;;5090206;28;20478;-89
2021/09/12 03:50:27;;;;;;;57.67;18.75;;;16.20;99.90;;;;;;5070310;28;20044;-89
2021/09/12 03:52:53;;;;;;;57.47;19.55;;;16.30;99.90;;;;;;5087053;28;20039;-90
2021/09/12 03:55:19;;;;;;;50.83;18.58;;;16.30;99.90;;;;;;5070385;28;20040;-89
2021/09/12 03:57:45;;;;;;;54.30;18.50;;;16.30;99.90;;;;;;5118526;27;20387;-90
2021/09/12 04:00:11;;;;;;;52.13;18.60;;;16.30;99.90;;;;;;5107026;27;20415;-88
2021/09/12 04:02:37;;;;;;;43.63;18.38;;;16.30;99.90;;;;;;5087907;28;20291;-89
2021/09/12 04:05:03;;;;;;;48.70;19.52;;;16.30;99.90;;;;;;5089377;28;20503;-89
2021/09/12 04:07:29;;;;;;;57.85;19.25;;;16.30;99.90;;;;;;5104739;28;20044;-89
2021/09/12 04:09:55;;;;;;;56.95;19.25;;;16.30;99.90;;;;;;5053777;28;20047;-89
2021/09/12 04:12:20;;;;;;;52.17;20.30;;;16.30;99.90;;;;;;5087926;28;20476;-88
2021/09/12 04:14:46;;;;;;;46.42;18.48;;;16.30;99.90;;;;;;5089272;28;20116;-87
2021/09/12 04:17:12;;;;;;;46.67;17.60;;;16.30;99.90;;;;;;5054723;28;20055;-87
2021/09/12 04:19:38;;;;;;;54.05;19.30;;;16.20;99.90;;;;;;5087587;28;20052;-87
2021/09/12 04:22:03;;;;;;;46.55;17.70;;;16.20;99.90;;;;;;5071775;28;20059;-88
2021/09/12 04:24:29;;;;;;;63.53;18.92;;;16.30;99.90;;;;;;5087279;28;20044;-89
2021/09/12 04:26:55;;;;;;;47.30;17.88;;;16.20;99.90;;;;;;5071288;28;20040;-89
2021/09/12 04:29:21;;;;;;;47.17;17.77;;;16.20;99.90;;;;;;5054123;28;20044;-89
2021/09/12 04:31:48;;;;;;;44.40;17.52;;;16.20;99.90;;;;;;5054505;28;20109;-88
2021/09/12 04:34:14;;;;;;;42.75;17.50;;;16.30;99.90;;;;;;5087733;28;20131;-89
2021/09/12 04:36:40;;;;;;;37.03;15.02;;;16.30;99.90;;;;;;5070275;28;20123;-89
2021/09/12 04:39:06;;;;;;;43.28;15.45;;;16.30;99.90;;;;;;5071226;28;20146;-89
2021/09/12 04:41:32;;;;;;;42.60;15.88;;;16.20;99.90;;;;;;5070450;28;20071;-89
2021/09/12 04:43:57;;;;;;;51.42;15.13;;;16.20;99.90;;;;;;5071107;28;20052;-88
2021/09/12 04:46:23;;;;;;;43.22;16.42;;;16.20;99.90;;;;;;5087261;28;20044;-90
2021/09/12 04:48:49;;;;;;;43.03;15.38;;;16.20;99.90;;;;;;5053971;28;20044;-88
2021/09/12 04:51:14;;;;;;;34.20;14.15;;;16.20;99.90;;;;;;5087765;28;20119;-89
2021/09/12 04:53:40;;;;;;;36.08;14.40;;;16.20;99.90;;;;;;5070329;28;20123;-87
2021/09/12 04:56:06;;;;;;;42.40;15.38;;;16.20;99.90;;;;;;5087748;28;20048;-87
2021/09/12 04:58:32;;;;;;;34.50;14.43;;;16.20;99.90;;;;;;5053265;28;20052;-88
2021/09/12 05:00:58;;;;;;;43.13;15.35;;;16.20;99.90;;;;;;5087856;28;20063;-88
2021/09/12 05:03:24;;;;;;;53.13;15.93;;;16.20;99.90;;;;;;5104307;28;20496;-88
2021/09/12 05:05:49;;;;;;;46.72;15.60;;;16.20;99.90;;;;;;5070633;28;20082;-88
2021/09/12 05:08:15;;;;;;;52.72;15.18;;;16.20;99.90;;;;;;5088676;28;20062;-87
2021/09/12 05:10:41;;;;;;;42.97;14.25;;;16.20;99.90;;;;;;5083626;28;20636;-88
2021/09/12 05:13:06;;;;;;;43.67;13.95;;;16.10;99.90;;;;;;5071105;28;20093;-88
2021/09/12 05:15:32;;;;;;;41.20;15.52;;;16.10;99.90;;;;;;5087658;28;20481;-87
2021/09/12 05:17:57;;;;;;;34.63;13.63;;;16.10;99.90;;;;;;5053815;28;20056;-87
2021/09/12 05:20:24;;;;;;;42.45;14.27;;;16.10;99.90;;;;;;5072829;28;20049;-88
2021/09/12 05:22:50;;;;;;;42.72;12.60;;;16.10;99.90;;;;;;5104544;28;20070;-87
2021/09/12 05:25:16;;;;;;;52.47;13.35;;;16.10;99.90;;;;;;5103690;28;20055;-87
2021/09/12 05:27:42;;;;;;;31.80;12.20;;;16.10;99.90;;;;;;5090421;28;20745;-87
2021/09/12 05:30:08;;;;;;;31.95;12.23;;;16.10;99.90;;;;;;5074610;28;20053;-87
2021/09/12 05:32:34;;;;;;;35.70;11.90;;;16.10;99.90;;;;;;5057141;28;20064;-87
2021/09/12 05:35:00;;;;;;;36.03;11.93;;;16.10;99.90;;;;;;5074008;28;20048;-87
2021/09/12 05:37:26;;;;;;;32.15;11.55;;;16.10;99.90;;;;;;5071241;28;20040;-88
2021/09/12 05:39:51;;;;;;;46.20;11.90;;;16.00;99.90;;;;;;5073983;28;20044;-88
2021/09/12 05:42:17;;;;;;;32.85;11.70;;;16.00;99.90;;;;;;5091411;28;20100;-89
2021/09/12 05:44:43;;;;;;;36.35;11.57;;;16.00;99.90;;;;;;5073815;28;20052;-89
2021/09/12 05:47:09;;;;;;;37.55;11.70;;;16.00;99.90;;;;;;5090961;28;20207;-88
2021/09/12 05:49:34;;;;;;;43.22;13.15;;;16.10;99.90;;;;;;5056292;28;20052;-88
2021/09/12 05:52:00;;;;;;;32.90;11.73;;;16.10;99.90;;;;;;5078146;28;20048;-88
2021/09/12 05:54:26;;;;;;;34.28;11.68;;;16.10;99.90;;;;;;5074778;28;20048;-89
2021/09/12 05:56:51;;;;;;;35.58;11.13;;;16.20;99.90;;;;;;5089444;28;20515;-87
2021/09/12 05:59:17;;;;;;;32.50;10.63;;;16.20;99.90;;;;;;5091506;28;20048;-88
2021/09/12 06:01:43;;;;;;;32.15;10.02;;;16.20;99.90;;;;;;5073577;28;20394;-89
2021/09/12 06:04:09;;;;;;;35.15;10.70;;;16.30;99.90;;;;;;5088868;28;20143;-88
2021/09/12 06:06:35;;;;;;;26.27;10.80;;;16.30;99.90;;;;;;5073429;28;20480;-89
2021/09/12 06:09:01;;;;;;;34.05;11.65;;;16.30;99.90;;;;;;5074326;28;20113;-89
2021/09/12 06:11:26;;;;;;;27.20;11.05;;;16.40;99.90;;;;;;5091405;28;20047;-88
2021/09/12 06:13:52;;;;;;;26.60;11.18;;;16.40;99.90;;;;;;5091084;28;20052;-87
2021/09/12 06:16:18;;;;;;;29.92;10.60;;;16.40;99.90;;;;;;5074313;28;20036;-88
2021/09/12 06:18:44;;;;;;;26.83;9.52;;;16.40;99.90;;;;;;5073371;28;20071;-88
2021/09/12 06:21:10;;;;;;;37.92;11.50;;;16.40;99.90;;;;;;5074346;28;20051;-88
2021/09/12 06:23:35;;;;;;;33.33;11.50;;;16.50;99.90;;;;;;5072983;28;20051;-88
2021/09/12 06:26:01;;;;;;;42.83;11.35;;;16.40;99.90;;;;;;5091915;28;20271;-88
2021/09/12 06:28:27;;;;;;;34.35;10.63;;;16.50;99.90;;;;;;5091237;28;20438;-87
2021/09/12 06:30:53;;;;;;;29.15;10.20;;;16.50;99.90;;;;;;5073774;28;20062;-86
2021/09/12 06:33:19;;;;;;;29.52;10.90;;;16.50;99.90;;;;;;5089906;28;20089;-87
2021/09/12 06:35:45;;;;;;;35.13;11.55;;;16.50;99.90;;;;;;5056318;28;20551;-87
2021/09/12 06:38:10;;;;;;;33.53;12.02;;;16.50;99.90;;;;;;5040834;28;20159;-88
2021/09/12 06:40:36;;;;;;;28.55;10.68;;;16.50;99.90;;;;;;5056732;28;20123;-88
2021/09/12 06:43:03;;;;;;;27.33;12.27;;;16.60;99.90;;;;;;5073856;28;20051;-88
2021/09/12 06:45:30;;;;;;;31.83;11.02;;;16.60;99.90;;;;;;5073324;28;20044;-89
2021/09/12 06:47:56;;;;;;;34.08;11.20;;;16.60;99.90;;;;;;5073090;28;20047;-87
2021/09/12 06:50:23;;;;;;;25.75;11.93;;;16.60;99.90;;;;;;5090011;28;20091;-87
2021/09/12 06:52:49;;;;;;;43.70;13.10;;;16.60;99.90;;;;;;5073131;28;20101;-89
2021/09/12 06:55:15;;;;;;;28.20;10.63;;;16.60;99.90;;;;;;5073724;28;20080;-89
2021/09/12 06:57:41;;;;;;;37.80;11.90;;;16.60;99.90;;;;;;5072653;28;20048;-88
2021/09/12 07:00:09;;;;;;;35.53;11.90;;;16.60;99.90;;;;;;5056803;28;20044;-89
2021/09/12 07:02:39;;;;;;;31.35;11.88;;;16.70;99.90;;;;;;5072793;28;20044;-89
2021/09/12 07:05:05;;;;;;;;;;;16.70;99.90;;;;;;5090483;28;20377;-89
2021/09/12 07:07:31;;;;;;;34.45;10.82;;;16.70;99.90;;;;;;5056590;28;19943;-89
2021/09/12 07:09:56;;;;;;;26.98;11.40;;;16.70;99.90;;;;;;5072576;28;20032;-89
2021/09/12 07:12:22;;;;;;;29.25;11.00;;;16.80;99.90;;;;;;5102029;28;20107;-89
2021/09/12 07:14:48;;;;;;;34.58;10.93;;;16.90;99.90;;;;;;5072361;28;20437;-88
2021/09/12 07:17:14;;;;;;;26.10;11.70;;;16.90;99.90;;;;;;5073240;28;20040;-87
2021/09/12 07:19:40;;;;;;;26.63;10.30;;;17.00;99.90;;;;;;5090306;28;20115;-87
2021/09/12 07:22:06;;;;;;;25.80;9.63;;;17.00;99.90;;;;;;5056305;28;20074;-87
2021/09/12 07:24:32;;;;;;;29.98;10.57;;;17.10;99.90;;;;;;5073124;28;20040;-87
2021/09/12 07:26:58;;;;;;;30.40;10.70;;;17.20;99.90;;;;;;5063045;28;20473;-87
2021/09/12 07:29:24;;;;;;;30.13;10.98;;;17.20;99.90;;;;;;5072742;28;20127;-87
2021/09/12 07:31:50;;;;;;;33.75;10.77;;;17.30;99.90;;;;;;5097218;28;20048;-90
2021/09/12 07:34:15;;;;;;;26.50;10.32;;;17.30;99.90;;;;;;5072516;28;20391;-90
2021/09/12 07:36:41;;;;;;;28.60;10.13;;;17.40;99.90;;;;;;5072172;28;20059;-89
2021/09/12 07:39:07;;;;;;;28.17;11.32;;;17.40;99.90;;;;;;5064014;28;20059;-88
2021/09/12 07:41:33;;;;;;;32.28;10.25;;;17.50;99.90;;;;;;5096643;28;20177;-88
2021/09/12 07:43:58;;;;;;;28.13;10.93;;;17.60;99.90;;;;;;5071744;28;20036;-89
2021/09/12 07:46:24;;;;;;;33.10;10.23;;;17.70;99.90;;;;;;5061160;28;20040;-89
2021/09/12 07:48:50;;;;;;;25.10;10.15;;;17.80;99.90;;;;;;5073164;28;20192;-87
2021/09/12 07:51:16;;;;;;;31.83;11.13;;;17.90;99.90;;;;;;5074800;28;20136;-87
2021/09/12 07:53:42;;;;;;;30.67;10.43;;;18.00;99.90;;;;;;5086598;28;20044;-88
2021/09/12 07:56:07;;;;;;;35.15;11.30;;;18.00;99.90;;;;;;5072004;28;20051;-88
2021/09/12 07:58:33;;;;;;;34.05;11.40;;;18.10;99.90;;;;;;5090063;28;20052;-87
2021/09/12 08:00:59;;;;;;;27.50;10.00;;;18.10;99.90;;;;;;5087536;28;20112;-88
2021/09/12 08:03:24;;;;;;;29.10;10.75;;;18.20;99.90;;;;;;5106301;28;20604;-88
2021/09/12 08:05:50;;;;;;;28.60;10.88;;;18.30;99.90;;;;;;5086328;28;20032;-88
2021/09/12 08:08:18;;;;;;;31.52;11.27;;;18.40;99.90;;;;;;5059320;28;20097;-88
2021/09/12 08:10:44;;;;;;;28.67;10.63;;;18.30;99.90;;;;;;5056361;28;20055;-88
2021/09/12 08:13:10;;;;;;;33.15;11.32;;;18.30;99.90;;;;;;5100226;28;20493;-88
2021/09/12 08:15:35;;;;;;;27.75;10.27;;;18.30;99.90;;;;;;5048412;28;20135;-89
2021/09/12 08:18:01;;;;;;;31.33;9.88;;;18.40;99.90;;;;;;5086737;28;20582;-88
2021/09/12 08:20:27;;;;;;;31.05;10.65;;;18.40;99.90;;;;;;5079617;28;20377;-89
2021/09/12 08:22:52;;;;;;;31.48;10.95;;;18.50;99.90;;;;;;5027679;28;20392;-88
2021/09/12 08:25:18;;;;;;;25.90;9.77;;;18.60;99.90;;;;;;5090206;28;20123;-88
2021/09/12 08:27:44;;;;;;;23.83;10.55;;;18.60;99.90;;;;;;5088038;28;20047;-88
2021/09/12 08:30:10;;;;;;;22.08;10.73;;;18.60;99.90;;;;;;5088634;28;20051;-88
2021/09/12 08:32:35;;;;;;;26.05;10.23;;;18.70;99.90;;;;;;5082849;28;20058;-88
2021/09/12 08:35:01;;;;;;;26.00;9.90;;;18.70;99.90;;;;;;5075057;28;20262;-87
2021/09/12 08:37:27;;;;;;;20.10;9.52;;;18.70;99.90;;;;;;5106291;28;20040;-87
2021/09/12 08:39:53;;;;;;;24.70;9.80;;;18.80;99.90;;;;;;5085625;28;20537;-90
2021/09/12 08:42:19;;;;;;;23.55;9.50;;;18.70;99.90;;;;;;5084834;28;20129;-91
2021/09/12 08:44:50;;;;;;;24.02;10.57;;;18.70;99.90;;;;;;5082679;28;20090;-91
2021/09/12 08:47:16;;;;;;;27.60;9.98;;;18.60;99.90;;;;;;5102918;28;20056;-91
2021/09/12 08:49:43;;;;;;;21.65;10.13;;;18.50;99.90;;;;;;5070654;28;20097;-91
2021/09/12 08:52:10;;;;;;;20.27;9.98;;;18.60;99.90;;;;;;5105583;28;20048;-91
2021/09/12 08:54:36;;;;;;;22.20;10.10;;;18.70;99.90;;;;;;5053434;28;20048;-90
2021/09/12 08:57:01;;;;;;;24.92;12.30;;;18.80;99.90;;;;;;5068536;28;20116;-89
2021/09/12 08:59:30;;;;;;;24.17;10.57;;;18.90;99.90;;;;;;5085598;28;20396;-91
2021/09/12 09:01:58;;;;;;;22.88;9.45;;;19.00;99.90;;;;;;5053606;28;20052;-90
2021/09/12 09:04:28;;;;;;;20.90;9.15;;;19.00;99.90;;;;;;5054440;28;20131;-91
2021/09/12 09:07:05;;;;;;;21.40;8.95;;;19.10;99.90;;;;;;5058477;28;20048;-91
2021/09/12 09:09:39;;;;;;;21.10;8.52;;;19.20;99.90;;;;;;5086467;28;20400;-92
2021/09/12 09:12:20;;;;;;;20.88;8.43;;;19.20;99.90;;;;;;5081602;28;20479;-93
2021/09/12 09:15:20;;;;;;;20.73;8.43;;;19.30;99.90;;;;;;5069657;28;20052;-92
2021/09/12 09:17:54;;;;;;;15.10;7.55;;;19.30;99.90;;;;;;5084707;28;20047;-90
2021/09/12 09:20:33;;;;;;;23.45;8.07;;;19.30;99.90;;;;;;5084328;28;20051;-92
2021/09/12 09:23:04;;;;;;;16.88;7.30;;;19.40;99.90;;;;;;5070952;28;20040;-93
2021/09/12 09:25:30;;;;;;;11.32;5.88;;;19.30;99.90;;;;;;5070917;28;20074;-92
2021/09/12 09:28:06;;;;;;;18.52;6.68;;;19.40;99.90;;;;;;5061760;28;20040;-91
2021/09/12 09:30:54;;;;;;;22.00;7.13;;;19.40;99.90;;;;;;5075077;28;20114;-93
2021/09/12 09:33:29;;;;;;;16.60;6.75;;;19.40;99.90;;;;;;5085610;28;20513;-91
2021/09/12 09:35:58;;;;;;;15.02;7.22;;;19.50;99.90;;;;;;5076390;28;20501;-90
2021/09/12 09:38:26;;;;;;;19.30;6.70;;;19.60;99.90;;;;;;5082611;28;20051;-92
2021/09/12 09:41:02;;;;;;;17.35;6.90;;;19.70;99.90;;;;;;5085194;28;21014;-91
2021/09/12 09:43:44;;;;;;;11.75;5.90;;;19.70;99.90;;;;;;5071942;28;20089;-91
2021/09/12 09:46:28;;;;;;;18.20;6.65;;;19.90;99.90;;;;;;5089641;28;20122;-92
2021/09/12 09:48:54;;;;;;;17.60;6.53;;;19.90;99.90;;;;;;5100598;28;20062;-93
2021/09/12 09:51:22;;;;;;;12.00;5.55;;;20.00;99.90;;;;;;5088250;28;20048;-93
2021/09/12 09:53:48;;;;;;;11.88;5.55;;;20.10;99.90;;;;;;5059726;28;20036;-93
2021/09/12 09:56:13;;;;;;;19.23;5.97;;;20.20;99.90;;;;;;5054453;28;20066;-92
2021/09/12 09:58:40;;;;;;;11.38;5.68;;;20.20;99.90;;;;;;5087926;28;20093;-95
2021/09/12 10:01:06;;;;;;;13.00;5.70;;;20.30;99.90;;;;;;5085970;28;20549;-95
2021/09/12 10:03:33;;;;;;;15.57;5.90;;;20.30;99.90;;;;;;5086504;28;20058;-94
2021/09/12 10:06:00;;;;;;;14.77;6.22;;;20.30;99.90;;;;;;5074935;28;20535;-95
2021/09/12 10:08:26;;;;;;;12.50;5.68;;;20.40;99.90;;;;;;5087602;28;20083;-93
2021/09/12 10:10:53;;;;;;;11.57;4.85;;;20.40;99.90;;;;;;5087636;28;20040;-95
2021/09/12 10:13:21;;;;;;;10.80;5.05;;;20.50;99.90;;;;;;5069419;28;20040;-94
2021/09/12 10:15:50;;;;;;;12.23;5.18;;;20.60;99.90;;;;;;5092074;28;20470;-89
2021/09/12 10:18:23;;;;;;;11.90;5.70;;;20.50;99.90;;;;;;5071576;28;20036;-92
2021/09/12 10:20:48;;;;;;;10.02;4.53;;;20.60;99.90;;;;;;5084814;28;20479;-90
2021/09/12 10:23:14;;;;;;;11.85;5.43;;;20.60;99.90;;;;;;5092869;28;20044;-92
2021/09/12 10:25:42;;;;;;;12.55;5.32;;;20.70;99.90;;;;;;5089076;28;20039;-96
2021/09/12 10:28:08;;;;;;;15.35;4.95;;;20.90;99.90;;;;;;5088971;28;20040;-94
2021/09/12 10:30:44;;;;;;;8.68;4.78;;;21.00;99.90;;;;;;5092477;28;20088;-93
2021/09/12 10:33:13;;;;;;;23.00;5.25;;;21.00;99.90;;;;;;5089250;28;20070;-92
2021/09/12 10:35:50;;;;;;;14.18;5.50;;;21.20;99.90;;;;;;5086258;28;20044;-96
2021/09/12 10:38:37;;;;;;;9.50;4.72;;;21.30;99.90;;;;;;5108920;28;20105;-94
2021/09/12 10:41:02;;;;;;;10.30;4.55;;;21.30;99.90;;;;;;5058882;28;20047;-92
2021/09/12 10:43:29;;;;;;;19.17;5.65;;;21.20;99.90;;;;;;5074652;28;20124;-94
2021/09/12 10:46:01;;;;;;;11.27;4.97;;;21.20;99.90;;;;;;5072354;28;20115;-92
2021/09/12 10:48:53;;;;;;;13.20;4.78;;;21.10;99.90;;;;;;5105569;28;20109;-94
2021/09/12 10:51:19;;;;;;;10.70;4.80;;;20.90;99.90;;;;;;5048701;28;20074;-93
2021/09/12 10:53:45;;;;;;;15.10;5.10;;;20.70;99.90;;;;;;5105968;28;20044;-92
2021/09/12 10:56:11;;;;;;;11.93;5.07;;;20.40;99.90;;;;;;5105316;28;20054;-93
2021/09/12 10:58:38;;;;;;;9.88;5.35;;;20.10;99.90;;;;;;5098514;28;20063;-94
2021/09/12 11:01:05;;;;;;;9.70;4.05;;;19.60;99.90;;;;;;5070938;28;20490;-92
2021/09/12 11:03:32;;;;;;;32.80;4.13;;;19.20;99.90;;;;;;5071980;28;20040;-96
2021/09/12 11:05:58;;;;;;;13.48;4.07;;;18.50;99.90;;;;;;5084474;28;20048;-90
2021/09/12 11:08:38;;;;;;;13.55;6.30;;;18.00;99.90;;;;;;5107027;28;20093;-92
2021/09/12 11:11:06;;;;;;;11.20;6.32;;;17.70;99.90;;;;;;5072474;28;20040;-93
2021/09/12 11:13:34;;;;;;;8.90;5.05;;;17.60;99.90;;;;;;5073018;28;20553;-92
2021/09/12 11:16:04;;;;;;;10.43;6.22;;;17.50;99.90;;;;;;5072438;28;20099;-92
2021/09/12 11:18:49;;;;;;;17.92;7.43;;;17.50;99.90;;;;;;5073062;28;20054;-91
2021/09/12 11:21:41;;;;;;;17.17;8.80;;;17.50;99.90;;;;;;5072752;28;20061;-93
2021/09/12 11:24:13;;;;;;;22.10;9.55;;;17.50;99.90;;;;;;5089485;28;20052;-92
2021/09/12 11:26:45;;;;;;;19.15;10.13;;;17.60;99.90;;;;;;5072924;28;20162;-92
2021/09/12 11:29:12;;;;;;;23.40;9.57;;;17.60;99.90;;;;;;5090021;28;20075;-92
2021/09/12 11:31:39;;;;;;;24.23;10.93;;;17.60;99.90;;;;;;5072312;28;20467;-90
2021/09/12 11:34:05;;;;;;;22.88;10.88;;;17.70;99.90;;;;;;5072092;28;20077;-93
2021/09/12 11:36:45;;;;;;;18.75;10.40;;;17.80;99.90;;;;;;5090694;28;20123;-93
2021/09/12 11:39:12;;;;;;;17.40;10.05;;;17.90;99.90;;;;;;5090118;28;20075;-93
2021/09/12 11:41:40;;;;;;;11.82;5.05;;;18.00;99.90;;;;;;5090446;28;20138;-92
2021/09/12 11:44:06;;;;;;;5.88;3.63;;;18.10;99.90;;;;;;5055257;28;20056;-92
2021/09/12 11:46:32;;;;;;;14.20;6.22;;;18.10;99.90;;;;;;5090688;28;20040;-94
2021/09/12 11:49:00;;;;;;;10.27;5.10;;;18.30;99.90;;;;;;5085352;28;20096;-93
2021/09/12 11:51:28;;;;;;;15.00;6.30;;;18.30;99.90;;;;;;5069435;28;20438;-93
2021/09/12 11:54:12;;;;;;;11.18;5.78;;;18.50;99.90;;;;;;5069801;28;20051;-88
2021/09/12 11:56:39;;;;;;;8.55;3.92;;;18.50;99.90;;;;;;5069235;28;20049;-93
2021/09/12 11:59:11;;;;;;;8.73;3.70;;;18.60;99.90;;;;;;5069678;28;20051;-93
2021/09/12 12:01:41;;;;;;;14.27;4.15;;;18.80;99.90;;;;;;5069259;28;20402;-92
2021/09/12 12:04:08;;;;;;;8.15;2.92;;;18.90;99.90;;;;;;5052351;28;20040;-94
2021/09/12 12:06:34;;;;;;;6.30;3.28;;;19.00;99.90;;;;;;5069068;28;20109;-92
2021/09/12 12:09:16;;;;;;;3.85;0.90;;;19.20;99.90;;;;;;5067895;28;20044;-93
2021/09/12 12:11:44;;;;;;;7.82;0.85;;;19.20;99.90;;;;;;5068896;28;20143;-92
2021/09/12 12:14:26;;;;;;;3.38;0.80;;;19.10;99.90;;;;;;5068744;28;20492;-92
2021/09/12 12:16:53;;;;;;;3.25;0.70;;;19.10;99.90;;;;;;5068777;28;20087;-93
2021/09/12 12:19:21;;;;;;;4.28;0.82;;;19.10;99.90;;;;;;5069501;28;20052;-93
2021/09/12 12:21:51;;;;;;;1.55;0.70;;;19.10;99.90;;;;;;5068653;28;20044;-89
2021/09/12 12:24:19;;;;;;;8.43;1.38;;;19.10;99.90;;;;;;5069024;28;20057;-91
2021/09/12 12:26:48;;;;;;;17.02;2.90;;;19.10;99.90;;;;;;5068844;28;20051;-92
2021/09/12 12:29:25;;;;;;;6.72;1.27;;;19.20;99.90;;;;;;5084522;28;20599;-89
2021/09/12 12:31:51;;;;;;;3.38;0.93;;;19.40;99.90;;;;;;5068004;28;20082;-92